Chorges (05) - Bbis

Date : 29/08/2014

Place Nom Licence Catégorie Club Temps CN à J-60 Points Différence Nouveau CN
1 OTSAMO Pihla 25029 D20 5907NO 0:29:14 6201 6164
2 KOTECKA Michaela 14628 D35 5906NO 0:32:33 5569 4568
3 MACHEMIN Marie 28270 D21 1905LI 0:36:44 4529 4935 +406 4823
4 KIRILOV Aurélie 20629 D21 5906NO 0:38:08 4771 4754 -17 4802
5 BOVERO Severine 17002 D35 4201RA 0:38:13 5337 4744 -593 4534
6 MOREL Eugenie 15479 D20 5407LO 0:38:24 4909 4721 -188 5014
7 RORA BONNEAU Mathilde 4373 D21 7719IF 0:39:05 4661 4638 -23 4656
8 RAUTURIER Camille 4183 D21 7807IF 0:40:26 5433 4483 -950 5548
9 MANGUERO Laure 2355 D21 2604RA 0:40:54 3507 4432 +925 3962
10 NIGGLI Daria 21017 D35 3913FC 0:41:15 4529 4395 -134 4496
11 RICARD BORCHORST Clarissa 14676 D21 9502IF 0:41:41 4224 4349 +125 4305
12 FACHAUX Angélique 17577 D21 5907NO 0:42:46 4004 4239 +235 4229
13 DODIER Orianne 10485 D20 8405PR 0:42:47 4237 4111
14 CHARDOT Julia 19345 D20 7807IF 0:43:42 4498 4148 -350 4449
15 DEJARDIN Emilie 10863 D20 3811RA 0:43:45 3209 4144 +935 3629
16 KUCINSKA Laura 29171 D35 9502IF 0:46:28 3513 3901 +388 3774
17 RIOU BENARD Clara 26494 D20 8311AZ 0:46:47 3921 3875 -46 3578
18 BRUNDU-LEMAIRE Sarah 18059 D35 7807IF 0:47:05 4705 3850 -855 4651
19 ROBIN Mélanie 24547 D35 6911RA 0:47:08 2763 3846 +1083 3246
20 RIVOLLIER Isaline 22451 D20 4201RA 0:47:09 4565 3845 -720 4513
21 CHEVALIER Caroline 24293 D35 8702LI 0:47:14 3854 3838 -16 3934
22 DONET Elodie 26938 D20 2109BO 0:47:49 3967 3791 -176 3967
23 CAVALIER Héloïse 22600 D21 7512IF 0:50:00 5322 3626 -1696 5294
24 RAVENEL Manon 10903 D21 6804AL 0:50:12 3501 3611 +110 3545
25 VINCENT Marilyne 21023 D35 3913FC 0:50:19 3485 3603 +118 3459
26 VERCASSON Rachel 14527 D21 2604RA 0:50:31 3861 3589 -272 4062
27 MATHIEU Angélique 26227 D21 7722IF 0:50:53 3836 3563 -273 3781
28 JUNCKER Guillaume 23423 H21 6804AL 0:50:55 3958 3560 -398 3808
29 RIVIERE Estelle 22572 D21 2607RA 0:51:05 3549 3051
30 PARIGOT Virginie 2722 D35 2109BO 0:51:50 5028 3497 -1531 5055
31 CHAGNON Emilie 20867 D35 2407AQ 0:52:41 3401 3441 +40 3438
32 LOUVET Eloise 912 D21 7707IF 0:52:51 4172 3430 -742 4184
33 RAVENEL Fanny 10904 D21 6804AL 0:53:49 4125 3368 -757 4117
34 PLAGNOL Fabienne 25582 D35 2605RA 0:54:38 2939 3318 +379 3453
35 FINAS Mélanie 29480 D21 5907NO 0:54:53 4336 3303 -1033 4293
36 CHEVREUX Angélique 16105 D35 7109BO 0:54:55 3423 3301 -122 3423
37 MARCUZZI Cécile 28161 D20 6008PI 0:55:57 3439 3240 -199 3815
38 JUNG Chloé 22680 D35 7807IF 0:58:35 1346 3094 +1748 2831
39 LEFEVRE Magali 2696 D35 2105BO 0:58:41 4318 3089 -1229 4467
40 DEMESSANCE Annaik 25595 D20 6008PI 0:59:16 3638 3059 -579 3586
41 GAUDRILLIER Laurence 19565 D35 7305RA 1:02:42 3903 2891 -1012 3718
42 EDIAR Helene 14651 D35 9109IF 1:04:29 3920 2811 -1109 3868
43 GUIOT Jeanne 22584 D35 4504CE 1:05:11 3421 2781 -640 3421
44 MANOPOULOS Anne 26515 D35 1303PR 1:06:14 3031 2737 -294 3219
45 LAGRANGE Florence 16189 D35 7716IF 1:07:52 2217 2671 +454 2472
46 EININGER Celine 26071 D35 0615AZ 1:08:21 3173 2652 -521 3173
47 NORMAND SECOND Maéva 27260 D35 7305RA 1:08:28 2648 0
48 PEAN Anne Sophie 16744 D21 3408LR 1:08:44 3063 2637 -426 3149
49 AUBERT Gaëlle 29697 D21 8311AZ 1:10:00 2261 2590 +329 2577
50 COLLETTE Céline 24924 D35 4601MP 1:10:40 3675 2565 -1110 3675
51 BRIERE Axelle 24514 D35 2704NM 1:11:29 4073 2536 -1537 4163
52 HAGARD Virginie 7048 D21 5907NO 1:13:14 3297 2475 -822 3442
53 JACQUOT Marie 19129 D21 2108BO 1:14:49 2582 2423 -159 2715
54 CHICHERY Séverine 26114 D35 8106MP 1:15:34 2842 2399 -443 2975
55 PARIZOTTO Valérie 26637 D21 4705AQ 1:20:01 3438 2266 -1172 3516
56 DOMBROVSKY Florence 25178 D35 6499AQ 1:21:23 2913 2227 -686 2968
57 MEMBREY Aurore 19740 D21 2508FC 1:27:07 3907 2081 -1826 4257
58 ASTOUL Sandrine 16801 D35 6911RA 1:27:20 2159 2076 -83 2340
59 HAYER Cécilia 26528 D21 6709AL 1:28:57 3345 2038 -1307 3447
60 LEMAIRE Cecile 14864 D35 3408LR 1:29:54 2544 2016 -528 2286
61 DUPLESSIS Noémie 24302 D21 5116CA 1:30:57 3423 1993 -1430 3417
62 GOLEA Aude 28360 D35 1303PR 1:31:55 2200 1972 -228 2200
63 REMOND Mélanie 25088 D21 2109BO 1:34:57 2838 1909 -929 3013
64 ROUBOT Anaïs 25182 D20 2109BO 2:03:05 2500 1473 -1027 2625
FONTAINE Helise 22962 D20 5907NO pm 4870 0 4870
GRILLON-BENACEK Céline 19355 D21 7403RA pm 4096 0 3575
HENRIET Marie-Pierre 22393 D21 2508FC pm 3641 0 3771
WILD Candice 29358 D21 2704NM pm 3195 0 3195